Time;durP1;ratioP1;P1;durP2;ratioP2;P2;SDS_P1;SDS_P2;PMS_P1;PMS_P2;Temp;Humidity;BMP_temperature;BMP_pressure;BME280_temperature;BME280_humidity;BME280_pressure;Samples;Min_cycle;Max_cycle;Signal;HPM_P1;HPM_P2
2023/05/20 00:01:01;;;;;;;37.72;25.58;;;410.30;2355.20;;;;;;5074512;28;20024;-72
2023/05/20 00:03:28;;;;;;;34.38;25.08;;;410.40;2355.20;;;;;;5074681;28;20029;-71
2023/05/20 00:05:54;;;;;;;36.28;24.73;;;410.30;2355.20;;;;;;5074511;28;20040;-72
2023/05/20 00:08:20;;;;;;;31.13;21.77;;;410.20;2355.20;;;;;;5074890;28;20465;-73
2023/05/20 00:10:45;;;;;;;26.85;17.70;;;410.00;2355.20;;;;;;5074602;28;20054;-72
2023/05/20 00:13:11;;;;;;;25.17;18.95;;;410.10;2355.20;;;;;;5074468;28;20496;-72
2023/05/20 00:15:37;;;;;;;28.05;18.45;;;410.20;2355.20;;;;;;5074304;28;20025;-76
2023/05/20 00:18:03;;;;;;;24.83;17.88;;;410.20;2355.20;;;;;;5074374;28;20025;-72
2023/05/20 00:20:29;;;;;;;26.88;17.63;;;410.10;2355.20;;;;;;5074216;28;20539;-72
2023/05/20 00:22:55;;;;;;;23.83;16.27;;;410.00;2355.20;;;;;;5074250;28;20083;-71
2023/05/20 00:25:21;;;;;;;19.90;14.55;;;409.70;2355.20;;;;;;5074106;28;20036;-77
2023/05/20 00:27:47;;;;;;;23.02;14.60;;;384.90;2329.60;;;;;;5074142;28;20474;-71
2023/05/20 00:30:13;;;;;;;27.02;13.07;;;384.90;2329.60;;;;;;5074131;28;20025;-72
2023/05/20 00:32:38;;;;;;;18.05;12.52;;;384.60;2329.60;;;;;;5073869;28;20073;-71
2023/05/20 00:35:05;;;;;;;17.08;12.57;;;384.50;2329.60;;;;;;5073775;28;20052;-72
2023/05/20 00:37:30;;;;;;;14.73;12.02;;;384.50;2329.60;;;;;;5073837;28;20020;-71
2023/05/20 00:39:56;;;;;;;17.25;10.45;;;384.70;2329.60;;;;;;5073845;28;20028;-72
2023/05/20 00:42:26;;;;;;;15.77;11.27;;;384.60;2329.60;;;;;;5074084;28;20028;-74
2023/05/20 00:44:53;;;;;;;12.45;9.98;;;384.70;2329.60;;;;;;5073346;28;20110;-72
2023/05/20 00:47:22;;;;;;;16.00;11.32;;;384.70;2329.60;;;;;;5073269;28;20103;-71
2023/05/20 00:49:49;;;;;;;13.35;10.40;;;384.90;2329.60;;;;;;5073779;28;20034;-71
2023/05/20 00:52:16;;;;;;;11.45;9.38;;;384.90;2329.60;;;;;;5073865;28;20017;-71
2023/05/20 00:54:42;;;;;;;12.35;9.38;;;384.80;2329.60;;;;;;5073441;28;20054;-72
2023/05/20 00:57:08;;;;;;;10.57;9.32;;;384.70;2329.60;;;;;;5073678;28;20029;-73
2023/05/20 00:59:36;;;;;;;13.15;8.85;;;384.70;2329.60;;;;;;5073677;28;20051;-73
2023/05/20 01:02:03;;;;;;;14.52;8.93;;;384.70;2329.60;;;;;;5073376;28;20386;-72
2023/05/20 01:04:30;;;;;;;12.95;10.80;;;384.70;2329.60;;;;;;5073458;28;20473;-71
2023/05/20 01:06:56;;;;;;;14.13;9.10;;;384.80;2329.60;;;;;;5073499;28;20024;-72
2023/05/20 01:09:23;;;;;;;12.10;9.40;;;384.90;2329.60;;;;;;5073262;28;20028;-71
2023/05/20 01:12:15;;;;;;;12.50;8.93;;;384.90;2329.60;;;;;;5073554;28;20033;-71
2023/05/20 01:15:00;;;;;;;12.85;10.05;;;409.60;2355.20;;;;;;5011529;28;20376;-72
2023/05/20 01:17:29;;;;;;;14.30;10.32;;;384.90;2329.60;;;;;;5011655;28;20053;-72
2023/05/20 01:19:58;;;;;;;15.85;11.38;;;384.90;2329.60;;;;;;5011620;28;20104;-71
2023/05/20 01:22:25;;;;;;;15.65;12.27;;;384.90;2329.60;;;;;;5011484;28;20033;-72
2023/05/20 01:24:54;;;;;;;16.73;10.75;;;384.90;2329.60;;;;;;5011431;28;20034;-76
2023/05/20 01:27:24;;;;;;;14.90;10.38;;;384.90;2329.60;;;;;;5011548;28;20021;-71
2023/05/20 01:29:51;;;;;;;13.50;9.70;;;384.70;2329.60;;;;;;5011553;28;20072;-71
2023/05/20 01:32:22;;;;;;;14.65;10.65;;;384.70;2329.60;;;;;;5011338;28;20030;-71
2023/05/20 01:34:52;;;;;;;15.60;11.70;;;384.70;2329.60;;;;;;5011204;28;20045;-71
2023/05/20 01:37:22;;;;;;;24.80;14.23;;;384.60;2329.60;;;;;;5011501;28;20075;-71
2023/05/20 01:39:49;;;;;;;15.60;12.65;;;384.60;2329.60;;;;;;5031004;28;20049;-71
2023/05/20 01:42:16;;;;;;;16.98;13.40;;;384.70;2329.60;;;;;;5031309;28;20021;-71
2023/05/20 01:44:42;;;;;;;17.27;11.73;;;384.80;2329.60;;;;;;5030858;28;20104;-73
2023/05/20 01:47:08;;;;;;;19.65;13.43;;;384.90;2329.60;;;;;;5031067;28;20033;-79
2023/05/20 01:49:34;;;;;;;19.58;13.95;;;384.70;2329.60;;;;;;5030898;28;20030;-71
2023/05/20 01:51:59;;;;;;;32.30;20.77;;;384.70;2329.60;;;;;;5057920;28;20055;-72
2023/05/20 01:54:25;;;;;;;20.63;14.90;;;384.70;2329.60;;;;;;5073176;28;20127;-72
2023/05/20 01:56:51;;;;;;;19.25;14.52;;;384.70;2329.60;;;;;;5073648;28;20370;-71
2023/05/20 01:59:17;;;;;;;20.95;15.93;;;384.70;2329.60;;;;;;5076922;28;20052;-71
2023/05/20 02:01:42;;;;;;;24.08;15.63;;;384.70;2329.60;;;;;;5076984;28;20020;-71
2023/05/20 02:04:08;;;;;;;20.27;13.73;;;384.70;2329.60;;;;;;5076666;28;20389;-71
2023/05/20 02:06:34;;;;;;;18.98;14.88;;;384.50;2329.60;;;;;;5076825;28;20108;-72
2023/05/20 02:08:59;;;;;;;25.13;16.45;;;384.40;2329.60;;;;;;5076886;28;20432;-71
2023/05/20 02:11:25;;;;;;;24.13;15.18;;;384.40;2329.60;;;;;;5076779;28;20054;-77
2023/05/20 02:13:51;;;;;;;22.75;15.95;;;384.60;2329.60;;;;;;5076632;28;20478;-71
2023/05/20 02:16:17;;;;;;;22.75;16.02;;;384.70;2329.60;;;;;;5076736;28;20024;-71
2023/05/20 02:18:43;;;;;;;18.38;14.20;;;384.70;2329.60;;;;;;5076370;28;20052;-72
2023/05/20 02:21:09;;;;;;;29.17;13.02;;;384.60;2329.60;;;;;;5076930;28;20053;-77
2023/05/20 02:23:34;;;;;;;24.58;12.75;;;384.60;2329.60;;;;;;5076719;28;20482;-72
2023/05/20 02:26:01;;;;;;;19.90;11.73;;;384.50;2329.60;;;;;;5076288;28;20044;-71
2023/05/20 02:28:26;;;;;;;18.92;12.95;;;384.40;2329.60;;;;;;5076427;28;20024;-72
2023/05/20 02:30:52;;;;;;;28.15;12.75;;;384.40;2329.60;;;;;;5076570;28;20104;-71
2023/05/20 02:33:21;;;;;;;30.67;13.35;;;384.40;2329.60;;;;;;5072841;28;20501;-71
2023/05/20 02:35:46;;;;;;;29.63;13.38;;;384.40;2329.60;;;;;;5056136;28;20083;-72
2023/05/20 02:38:12;;;;;;;27.75;12.55;;;384.40;2329.60;;;;;;5056514;28;20021;-72
2023/05/20 02:40:38;;;;;;;31.88;10.77;;;384.40;2329.60;;;;;;5056216;28;20381;-72
2023/05/20 02:43:04;;;;;;;49.38;11.15;;;384.30;2329.60;;;;;;5056169;28;20017;-71
2023/05/20 02:45:30;;;;;;;21.20;10.43;;;384.30;2329.60;;;;;;5037395;28;20049;-73
2023/05/20 02:47:56;;;;;;;52.83;11.15;;;384.30;2329.60;;;;;;5055850;28;20049;-73
2023/05/20 02:50:22;;;;;;;46.78;10.73;;;384.20;2329.60;;;;;;5056007;28;20040;-72
2023/05/20 02:52:47;;;;;;;59.95;9.88;;;384.20;2329.60;;;;;;5037996;28;20037;-73
2023/05/20 02:55:13;;;;;;;11.82;9.43;;;384.10;2329.60;;;;;;5037684;28;20044;-71
2023/05/20 02:57:39;;;;;;;27.77;9.65;;;384.10;2329.60;;;;;;5056038;28;20063;-71
2023/05/20 03:00:09;;;;;;;11.27;9.40;;;384.00;2329.60;;;;;;5055809;28;20025;-79
2023/05/20 03:02:35;;;;;;;15.23;10.48;;;384.00;2329.60;;;;;;5055369;28;20430;-72
2023/05/20 03:05:03;;;;;;;19.30;9.88;;;384.00;2329.60;;;;;;5054842;28;20386;-71
2023/05/20 03:07:30;;;;;;;22.05;9.80;;;384.10;2329.60;;;;;;5055374;28;20029;-71
2023/05/20 03:09:57;;;;;;;13.02;10.88;;;384.00;2329.60;;;;;;5054263;28;20024;-72
2023/05/20 03:12:25;;;;;;;38.13;11.75;;;384.20;2329.60;;;;;;5055013;28;20052;-71
2023/05/20 03:14:54;;;;;;;53.35;11.88;;;384.10;2329.60;;;;;;5054935;28;20116;-74
2023/05/20 03:17:20;;;;;;;31.77;11.93;;;384.10;2329.60;;;;;;5054844;28;20098;-72
2023/05/20 03:19:46;;;;;;;59.20;12.07;;;384.10;2329.60;;;;;;5054716;28;20024;-72
2023/05/20 03:22:12;;;;;;;12.57;9.63;;;384.10;2329.60;;;;;;5054800;28;20017;-71
2023/05/20 03:24:38;;;;;;;37.83;11.68;;;384.00;2329.60;;;;;;5054763;28;20122;-72
2023/05/20 03:27:03;;;;;;;42.88;11.32;;;384.00;2329.60;;;;;;5054711;28;20379;-72
2023/05/20 03:29:30;;;;;;;59.30;13.15;;;384.00;2329.60;;;;;;5054604;28;20363;-72
2023/05/20 03:31:56;;;;;;;63.35;13.35;;;359.30;2329.60;;;;;;5054704;28;20021;-79
2023/05/20 03:34:21;;;;;;;25.95;11.80;;;359.20;2329.60;;;;;;5066150;28;20055;-71
2023/05/20 03:36:47;;;;;;;30.15;11.35;;;359.20;2329.60;;;;;;5074555;28;20029;-72
2023/05/20 03:39:13;;;;;;;44.65;11.52;;;359.10;2329.60;;;;;;5074777;28;20036;-72
2023/05/20 03:41:38;;;;;;;68.10;12.60;;;359.10;2329.60;;;;;;5074540;28;20017;-71
2023/05/20 03:44:04;;;;;;;21.10;10.35;;;359.10;2124.80;;;;;;5074240;28;20032;-72
2023/05/20 03:46:31;;;;;;;21.25;9.80;;;359.20;2150.40;;;;;;5074510;28;20067;-72
2023/05/20 03:48:57;;;;;;;44.10;10.48;;;359.20;2329.60;;;;;;5074274;28;20367;-79
2023/05/20 03:51:22;;;;;;;30.00;10.70;;;359.30;2329.60;;;;;;5074220;28;20030;-71
2023/05/20 03:53:48;;;;;;;38.58;10.88;;;359.30;2329.60;;;;;;5074245;28;20058;-72
2023/05/20 03:56:14;;;;;;;21.95;11.00;;;359.20;2329.60;;;;;;5074213;28;20048;-72
2023/05/20 03:58:41;;;;;;;23.85;10.35;;;359.30;2329.60;;;;;;5074205;28;20024;-72
2023/05/20 04:01:07;;;;;;;29.77;11.00;;;359.30;2329.60;;;;;;5074054;28;20100;-72
2023/05/20 04:03:32;;;;;;;19.67;10.57;;;359.30;2329.60;;;;;;5074100;28;20107;-72
2023/05/20 04:05:58;;;;;;;12.45;10.00;;;359.30;2329.60;;;;;;5073863;28;20037;-78
2023/05/20 04:08:26;;;;;;;17.95;10.40;;;384.00;2329.60;;;;;;5073785;28;20281;-71
2023/05/20 04:10:56;;;;;;;19.02;10.70;;;384.00;2329.60;;;;;;5073882;28;20046;-71
2023/05/20 04:13:24;;;;;;;13.60;10.38;;;359.30;2329.60;;;;;;5073864;28;20024;-71
2023/05/20 04:15:51;;;;;;;13.25;10.27;;;359.30;2329.60;;;;;;5073765;28;20052;-79
2023/05/20 04:18:17;;;;;;;20.48;11.05;;;384.00;2329.60;;;;;;5073508;28;20055;-72
2023/05/20 04:20:45;;;;;;;27.98;10.63;;;384.10;2329.60;;;;;;5073634;28;20486;-72
2023/05/20 04:23:11;;;;;;;12.98;9.85;;;384.00;2329.60;;;;;;5073711;28;20142;-71
2023/05/20 04:25:37;;;;;;;23.42;10.25;;;384.00;2329.60;;;;;;5073578;28;20083;-78
2023/05/20 04:28:03;;;;;;;21.88;10.63;;;384.00;2201.60;;;;;;5073490;28;20486;-72
2023/05/20 04:30:32;;;;;;;25.48;10.85;;;384.10;2329.60;;;;;;5073477;28;20033;-72
2023/05/20 04:32:58;;;;;;;26.27;11.18;;;384.20;2304.00;;;;;;5072814;28;20023;-71
2023/05/20 04:35:24;;;;;;;35.65;11.95;;;384.20;2022.40;;;;;;5053232;28;20390;-72
2023/05/20 04:37:52;;;;;;;13.07;10.63;;;384.20;2048.00;;;;;;5053344;28;20029;-71
2023/05/20 04:40:19;;;;;;;25.08;11.50;;;384.30;2329.60;;;;;;5053495;28;20100;-72
2023/05/20 04:42:45;;;;;;;18.52;10.82;;;384.30;2099.20;;;;;;5053316;28;20017;-71
2023/05/20 04:45:12;;;;;;;16.63;11.73;;;384.40;2176.00;;;;;;5053039;28;20059;-71
2023/05/20 04:47:38;;;;;;;24.35;12.43;;;384.40;2329.60;;;;;;5053180;28;20025;-71
2023/05/20 04:50:09;;;;;;;21.60;11.35;;;384.40;2329.60;;;;;;5052816;28;20025;-72
2023/05/20 04:52:36;;;;;;;18.25;11.32;;;384.50;2329.60;;;;;;5053592;28;20025;-72
2023/05/20 04:55:02;;;;;;;14.52;12.13;;;384.60;2329.60;;;;;;5053447;28;20017;-71
2023/05/20 04:57:28;;;;;;;16.15;12.45;;;384.70;2329.60;;;;;;5053603;28;20060;-72
2023/05/20 04:59:57;;;;;;;14.98;11.68;;;384.80;2329.60;;;;;;5053394;28;20048;-71
2023/05/20 05:02:24;;;;;;;16.67;12.38;;;384.90;2329.60;;;;;;5053545;28;20028;-71
2023/05/20 05:04:49;;;;;;;19.00;13.40;;;384.90;2329.60;;;;;;5053176;28;20086;-71
2023/05/20 05:07:15;;;;;;;19.92;14.70;;;409.60;2355.20;;;;;;5053385;28;20115;-72
2023/05/20 05:09:41;;;;;;;17.27;13.45;;;409.60;2355.20;;;;;;5053409;28;20021;-72
2023/05/20 05:12:06;;;;;;;16.52;13.35;;;409.70;2355.20;;;;;;5053530;28;20025;-72
2023/05/20 05:14:32;;;;;;;14.68;12.98;;;409.80;2355.20;;;;;;5053053;28;20021;-72
2023/05/20 05:16:58;;;;;;;17.17;12.70;;;409.80;2355.20;;;;;;5053352;28;20029;-72
2023/05/20 05:19:23;;;;;;;15.20;13.05;;;409.90;2355.20;;;;;;5052938;28;20053;-72
2023/05/20 05:21:50;;;;;;;18.80;13.77;;;410.00;2355.20;;;;;;5053219;28;20079;-71
2023/05/20 05:24:16;;;;;;;21.05;13.75;;;410.10;2355.20;;;;;;5053155;28;20025;-72
2023/05/20 05:26:41;;;;;;;18.77;14.23;;;410.20;2355.20;;;;;;5053194;28;20371;-73
2023/05/20 05:29:08;;;;;;;17.55;13.50;;;410.00;2355.20;;;;;;5062423;28;20095;-72
2023/05/20 05:31:33;;;;;;;21.40;15.77;;;410.00;2355.20;;;;;;5080887;28;20056;-72
2023/05/20 05:33:59;;;;;;;24.52;16.80;;;410.10;2355.20;;;;;;5081983;28;20437;-72
2023/05/20 05:36:25;;;;;;;19.67;15.73;;;410.20;2355.20;;;;;;5102469;28;20069;-72
2023/05/20 05:38:50;;;;;;;22.50;16.35;;;410.30;2355.20;;;;;;5102679;28;20542;-72
2023/05/20 05:41:16;;;;;;;19.85;16.02;;;410.30;2355.20;;;;;;5099129;28;20028;-72
2023/05/20 05:43:42;;;;;;;21.60;17.20;;;410.30;2355.20;;;;;;5101637;28;20040;-73
2023/05/20 05:46:08;;;;;;;20.98;16.95;;;410.50;2355.20;;;;;;5095036;28;20051;-75
2023/05/20 05:48:35;;;;;;;25.65;17.05;;;435.20;2355.20;;;;;;5098389;28;20058;-73
2023/05/20 05:51:01;;;;;;;24.00;17.35;;;435.30;2355.20;;;;;;5101783;28;20059;-71
2023/05/20 05:53:27;;;;;;;24.38;18.83;;;435.30;2355.20;;;;;;5092659;28;20075;-72
2023/05/20 05:55:52;;;;;;;27.15;18.30;;;435.50;2355.20;;;;;;5100944;28;20028;-72
2023/05/20 05:58:18;;;;;;;32.08;20.02;;;435.60;2355.20;;;;;;5096715;28;20051;-71
2023/05/20 06:00:44;;;;;;;28.10;21.13;;;435.80;2355.20;;;;;;5096018;28;20031;-72
2023/05/20 06:03:09;;;;;;;28.55;21.63;;;435.90;2355.20;;;;;;5098605;28;20489;-73
2023/05/20 06:05:35;;;;;;;26.27;21.40;;;436.00;2355.20;;;;;;5085013;28;20032;-73
2023/05/20 06:08:02;;;;;;;33.35;22.10;;;436.10;2355.20;;;;;;5097959;28;20039;-72
2023/05/20 06:10:27;;;;;;;30.13;21.45;;;460.80;2380.80;;;;;;5101990;28;20024;-71
2023/05/20 06:12:53;;;;;;;26.52;21.20;;;460.90;2380.80;;;;;;5095139;28;20442;-72
2023/05/20 06:15:19;;;;;;;25.77;20.73;;;460.90;2048.00;;;;;;5099836;28;20392;-72
2023/05/20 06:17:44;;;;;;;27.77;20.27;;;461.10;2124.80;;;;;;5097697;28;20036;-73
2023/05/20 06:20:11;;;;;;;30.05;20.70;;;461.10;2380.80;;;;;;5077572;28;20497;-72
2023/05/20 06:22:36;;;;;;;26.00;19.45;;;461.20;2380.80;;;;;;5104718;28;20534;-73
2023/05/20 06:25:02;;;;;;;32.25;19.90;;;461.40;2380.80;;;;;;5093097;28;20048;-74
2023/05/20 06:27:28;;;;;;;24.75;20.33;;;461.50;2380.80;;;;;;5099503;28;20016;-73
2023/05/20 06:29:54;;;;;;;30.13;18.90;;;461.70;2380.80;;;;;;5093166;28;20028;-72
2023/05/20 06:32:19;;;;;;;24.42;17.17;;;486.40;2380.80;;;;;;5097614;28;20466;-72
2023/05/20 06:34:45;;;;;;;20.95;16.08;;;486.40;2380.80;;;;;;5102017;28;20378;-72
2023/05/20 06:37:11;;;;;;;28.48;18.48;;;486.50;2380.80;;;;;;5095295;28;20086;-72
2023/05/20 06:39:37;;;;;;;31.55;18.92;;;486.70;2380.80;;;;;;5103434;28;20032;-71
2023/05/20 06:42:03;;;;;;;24.60;17.05;;;;;;;;;;5103746;28;20024;-72
2023/05/20 06:44:30;;;;;;;23.08;16.42;;;;;;;;;;5096501;28;20400;-71
2023/05/20 06:46:56;;;;;;;25.48;17.80;;;487.10;2380.80;;;;;;5101542;28;20032;-74
2023/05/20 06:49:22;;;;;;;21.85;15.40;;;487.10;2380.80;;;;;;5105915;28;20062;-72
2023/05/20 06:51:48;;;;;;;25.20;16.85;;;487.10;2380.80;;;;;;5104549;28;20038;-73
2023/05/20 06:54:14;;;;;;;25.42;16.65;;;487.20;2380.80;;;;;;5104106;28;20020;-73
2023/05/20 06:56:39;;;;;;;22.85;16.48;;;487.30;2380.80;;;;;;5108012;28;20039;-73
2023/05/20 06:59:06;;;;;;;30.35;16.88;;;512.10;2380.80;;;;;;5109186;28;20027;-71
2023/05/20 07:01:32;;;;;;;23.00;18.00;;;512.20;2380.80;;;;;;5098050;28;20047;-70
2023/05/20 07:03:58;;;;;;;22.02;18.13;;;512.40;2380.80;;;;;;5104299;28;20473;-72
2023/05/20 07:06:23;;;;;;;22.10;18.48;;;512.50;2380.80;;;;;;5101029;28;20035;-74
2023/05/20 07:08:49;;;;;;;21.95;16.95;;;512.70;2380.80;;;;;;5098811;28;20024;-73
2023/05/20 07:11:15;;;;;;;19.85;15.23;;;512.80;2380.80;;;;;;5108015;28;20027;-72
2023/05/20 07:13:40;;;;;;;35.13;17.08;;;512.90;2380.80;;;;;;5107628;28;20027;-74
2023/05/20 07:16:06;;;;;;;29.08;18.95;;;537.70;2406.40;;;;;;5103995;28;20028;-71
2023/05/20 07:18:32;;;;;;;31.85;17.85;;;537.80;2406.40;;;;;;5102615;28;20043;-72
2023/05/20 07:20:58;;;;;;;20.63;16.30;;;537.90;2406.40;;;;;;5097124;28;20035;-72
2023/05/20 07:23:23;;;;;;;19.98;15.18;;;538.00;2406.40;;;;;;5102023;28;20031;-72
2023/05/20 07:25:49;;;;;;;22.38;16.60;;;538.10;2406.40;;;;;;5101045;28;20035;-77
2023/05/20 07:28:16;;;;;;;26.60;17.25;;;538.10;2406.40;;;;;;5101465;28;20099;-72
2023/05/20 07:30:48;;;;;;;24.15;17.70;;;538.20;2406.40;;;;;;5090689;28;20051;-72
2023/05/20 07:33:14;;;;;;;24.30;16.00;;;538.30;2406.40;;;;;;5091433;28;20048;-78
2023/05/20 07:35:40;;;;;;;22.52;15.85;;;538.50;2406.40;;;;;;5102029;28;20067;-72
2023/05/20 07:38:06;;;;;;;20.42;14.15;;;563.20;2432.00;;;;;;5107759;28;20057;-78
2023/05/20 07:40:31;;;;;;;18.33;13.48;;;563.30;2432.00;;;;;;5099522;28;20036;-72
2023/05/20 07:42:57;;;;;;;21.85;14.70;;;563.40;2432.00;;;;;;5104195;28;20020;-75
2023/05/20 07:45:23;;;;;;;20.35;13.30;;;563.40;2432.00;;;;;;5104684;28;20123;-72
2023/05/20 07:47:48;;;;;;;18.45;12.32;;;563.60;2432.00;;;;;;5076527;28;20043;-72
2023/05/20 07:50:14;;;;;;;16.00;10.32;;;563.60;2432.00;;;;;;5096897;28;20039;-73
2023/05/20 07:52:40;;;;;;;20.67;11.07;;;563.80;2432.00;;;;;;5100501;28;20086;-71
2023/05/20 07:55:06;;;;;;;21.75;11.75;;;563.80;2432.00;;;;;;5098877;28;20031;-70
2023/05/20 07:57:31;;;;;;;17.23;12.30;;;563.90;2432.00;;;;;;5091341;28;20024;-71
2023/05/20 07:59:57;;;;;;;17.50;12.45;;;564.00;2432.00;;;;;;5104477;28;20102;-70
2023/05/20 08:02:23;;;;;;;19.60;13.23;;;564.10;2432.00;;;;;;5103405;28;20036;-69
2023/05/20 08:04:48;;;;;;;23.25;12.55;;;564.10;2432.00;;;;;;5097374;28;20413;-72
2023/05/20 08:07:14;;;;;;;16.00;11.18;;;564.10;2432.00;;;;;;5074876;28;20040;-73
2023/05/20 08:09:40;;;;;;;18.73;12.95;;;564.10;2432.00;;;;;;5096748;28;20039;-70
2023/05/20 08:12:05;;;;;;;18.55;13.52;;;564.10;2432.00;;;;;;5102147;28;20028;-70
2023/05/20 08:14:31;;;;;;;16.95;11.35;;;588.80;2432.00;;;;;;5102105;28;20081;-72
2023/05/20 08:16:57;;;;;;;15.10;11.55;;;588.90;2432.00;;;;;;5098400;28;20043;-70
2023/05/20 08:19:22;;;;;;;14.88;9.95;;;589.00;2432.00;;;;;;5101262;28;20043;-71
2023/05/20 08:21:48;;;;;;;12.32;10.07;;;589.10;2432.00;;;;;;5104179;28;20032;-70
2023/05/20 08:24:14;;;;;;;18.00;10.50;;;589.20;2432.00;;;;;;5101911;28;20008;-70
2023/05/20 08:26:39;;;;;;;13.70;9.10;;;589.30;2432.00;;;;;;5104460;28;20488;-71
2023/05/20 08:29:07;;;;;;;15.50;9.73;;;589.30;2329.60;;;;;;5100315;28;20469;-70
2023/05/20 08:31:32;;;;;;;14.35;9.40;;;589.30;2380.80;;;;;;5094701;28;20031;-70
2023/05/20 08:33:59;;;;;;;12.90;8.52;;;589.30;2432.00;;;;;;5101281;28;20043;-70
2023/05/20 08:36:25;;;;;;;14.93;9.73;;;589.40;2304.00;;;;;;5101549;28;20012;-72
2023/05/20 08:38:51;;;;;;;13.80;9.05;;;589.40;2329.60;;;;;;5094581;28;20040;-82
2023/05/20 08:41:16;;;;;;;12.15;8.27;;;589.40;2278.40;;;;;;5104048;28;20020;-70
2023/05/20 08:43:43;;;;;;;14.38;9.75;;;589.60;2432.00;;;;;;5104012;28;20130;-71
2023/05/20 08:46:10;;;;;;;16.80;8.57;;;589.60;2432.00;;;;;;5098764;28;20067;-71
2023/05/20 08:48:36;;;;;;;13.73;8.85;;;589.70;2227.20;;;;;;5096068;28;20031;-70
2023/05/20 08:51:03;;;;;;;16.83;9.52;;;589.70;2380.80;;;;;;5104266;28;20027;-69
2023/05/20 08:53:29;;;;;;;15.90;9.00;;;589.70;2432.00;;;;;;5099147;28;20488;-72
2023/05/20 08:55:59;;;;;;;13.52;8.07;;;614.40;2432.00;;;;;;5097292;28;20028;-71
2023/05/20 08:58:27;;;;;;;10.27;7.40;;;614.60;2227.20;;;;;;5094746;28;20065;-72
2023/05/20 09:00:53;;;;;;;12.95;9.02;;;614.60;2304.00;;;;;;5099002;28;20458;-73
2023/05/20 09:03:22;;;;;;;16.52;8.98;;;614.60;1996.80;;;;;;5101188;28;20491;-71
2023/05/20 09:05:48;;;;;;;10.18;8.43;;;614.60;2022.40;;;;;;5102000;28;20044;-71
2023/05/20 09:08:14;;;;;;;11.85;7.10;;;614.70;2176.00;;;;;;5078090;28;20423;-71
2023/05/20 09:10:40;;;;;;;13.38;8.25;;;614.80;2073.60;;;;;;5097538;28;20023;-72
2023/05/20 09:13:08;;;;;;;14.23;8.38;;;614.80;2073.60;;;;;;5100035;28;20032;-71
2023/05/20 09:15:35;;;;;;;12.60;8.75;;;615.00;2304.00;;;;;;5093703;28;20036;-72
2023/05/20 09:18:02;;;;;;;14.50;8.85;;;615.10;2329.60;;;;;;5100904;28;20456;-71
2023/05/20 09:20:28;;;;;;;12.98;8.43;;;615.10;2073.60;;;;;;5093058;28;20039;-72
2023/05/20 09:22:58;;;;;;;12.70;8.48;;;615.20;2022.40;;;;;;5104610;28;20023;-71
2023/05/20 09:25:24;;;;;;;12.98;7.85;;;615.20;2022.40;;;;;;5101315;28;20393;-71
2023/05/20 09:27:50;;;;;;;15.05;8.18;;;640.00;1920.00;;;;;;5095092;28;20023;-72
2023/05/20 09:30:19;;;;;;;16.48;8.40;;;640.10;1868.80;;;;;;5102414;28;20035;-71
2023/05/20 09:32:51;;;;;;;11.00;7.80;;;640.10;1920.00;;;;;;5104798;28;20024;-72
2023/05/20 09:35:18;;;;;;;12.70;7.20;;;640.30;1868.80;;;;;;5098438;28;20052;-72
2023/05/20 09:37:45;;;;;;;16.05;8.40;;;640.40;1868.80;;;;;;5097836;28;20052;-70
2023/05/20 09:40:14;;;;;;;12.15;7.57;;;640.40;1868.80;;;;;;5098753;28;20054;-71
2023/05/20 09:43:04;;;;;;;10.88;7.07;;;640.50;1843.20;;;;;;5103053;28;20083;-72
2023/05/20 09:45:30;;;;;;;11.80;7.43;;;;;;;;;;5035189;28;20071;-71
2023/05/20 09:47:56;;;;;;;10.55;6.70;;;640.70;1817.60;;;;;;5039053;28;20045;-71
2023/05/20 09:50:23;;;;;;;9.23;7.32;;;665.60;1766.40;;;;;;5033365;28;20099;-71
2023/05/20 09:52:50;;;;;;;11.80;7.93;;;;;;;;;;5047401;28;20025;-71
2023/05/20 09:55:18;;;;;;;12.43;8.02;;;665.90;1766.40;;;;;;5035426;28;20530;-72
2023/05/20 09:57:44;;;;;;;12.43;7.82;;;666.00;1689.60;;;;;;5040225;28;20045;-71
2023/05/20 10:00:12;;;;;;;13.50;7.30;;;666.20;1689.60;;;;;;5029783;28;20025;-78
2023/05/20 10:02:42;;;;;;;18.92;7.85;;;666.30;1664.00;;;;;;5034068;28;20060;-77
2023/05/20 10:05:14;;;;;;;13.77;8.00;;;666.40;1715.20;;;;;;5039834;28;20028;-73
2023/05/20 10:08:13;;;;;;;14.25;7.95;;;666.50;1689.60;;;;;;5032598;28;20091;-77
2023/05/20 10:10:58;;;;;;;9.90;7.65;;;691.30;1689.60;;;;;;5033579;28;20036;-72
2023/05/20 10:14:00;;;;;;;10.60;7.70;;;691.40;1689.60;;;;;;4979735;28;20101;-70
2023/05/20 10:16:37;;;;;;;13.07;7.90;;;691.30;1638.40;;;;;;4983440;28;20046;-70
2023/05/20 10:19:08;;;;;;;11.57;7.20;;;691.20;1612.80;;;;;;4990026;28;20162;-70
2023/05/20 10:21:34;;;;;;;12.55;7.95;;;691.60;1587.20;;;;;;4997599;28;20033;-71
2023/05/20 10:24:07;;;;;;;10.52;7.57;;;691.70;1638.40;;;;;;5015031;28;20038;-70
2023/05/20 10:26:40;;;;;;;13.50;8.30;;;691.70;1612.80;;;;;;5016553;28;20074;-71
2023/05/20 10:29:16;;;;;;;10.77;7.07;;;691.80;1612.80;;;;;;5017300;28;20507;-71
2023/05/20 10:31:49;;;;;;;21.65;8.18;;;692.10;1536.00;;;;;;5009870;28;20041;-71
2023/05/20 10:34:18;;;;;;;12.77;7.97;;;716.80;1536.00;;;;;;5018683;28;20065;-71
2023/05/20 10:36:58;;;;;;;8.68;7.18;;;716.90;1561.60;;;;;;5017197;28;20037;-71
2023/05/20 10:39:28;;;;;;;10.30;7.47;;;717.00;1510.40;;;;;;5022566;28;20022;-71
2023/05/20 10:42:14;;;;;;;11.52;8.30;;;716.90;1536.00;;;;;;5023826;28;20087;-71
2023/05/20 10:44:46;;;;;;;13.68;8.27;;;717.00;1536.00;;;;;;5014311;28;20583;-71
2023/05/20 10:47:12;;;;;;;13.80;7.47;;;717.00;1536.00;;;;;;5018238;28;20085;-71
2023/05/20 10:49:45;;;;;;;12.80;7.90;;;717.00;1561.60;;;;;;5027745;28;20054;-70
2023/05/20 10:52:12;;;;;;;14.93;7.82;;;716.90;1510.40;;;;;;5103550;28;20129;-71
2023/05/20 10:54:46;;;;;;;12.65;8.95;;;717.40;1587.20;;;;;;5079669;28;20370;-71
2023/05/20 10:57:12;;;;;;;10.00;7.95;;;717.20;1459.20;;;;;;5099501;28;20020;-71
2023/05/20 10:59:38;;;;;;;13.70;7.75;;;717.20;1433.60;;;;;;5098562;28;20465;-71
2023/05/20 11:02:04;;;;;;;14.48;8.00;;;717.50;1484.80;;;;;;5102236;28;20054;-71
2023/05/20 11:04:31;;;;;;;20.55;8.23;;;717.60;1459.20;;;;;;5102574;28;20015;-72
2023/05/20 11:06:57;;;;;;;11.15;7.30;;;717.40;1382.40;;;;;;5105291;28;20063;-71
2023/05/20 11:09:23;;;;;;;12.10;7.28;;;717.50;1433.60;;;;;;5104135;28;20478;-71
2023/05/20 11:11:51;;;;;;;11.50;7.28;;;717.50;1408.00;;;;;;5091298;28;20544;-73
2023/05/20 11:14:18;;;;;;;8.93;7.80;;;717.60;1484.80;;;;;;5080464;28;20027;-72
2023/05/20 11:16:45;;;;;;;12.93;7.53;;;717.50;1433.60;;;;;;5104394;28;20539;-70
2023/05/20 11:19:23;;;;;;;11.65;7.13;;;742.40;1356.80;;;;;;5103166;28;20072;-71
2023/05/20 11:21:50;;;;;;;11.82;7.00;;;742.40;1433.60;;;;;;5098831;28;20108;-71
2023/05/20 11:24:26;;;;;;;14.98;7.90;;;742.50;1433.60;;;;;;5104273;28;20035;-71
2023/05/20 11:26:56;;;;;;;8.70;7.03;;;742.50;1408.00;;;;;;5103855;28;20032;-71
2023/05/20 11:29:22;;;;;;;10.52;7.70;;;742.50;1331.20;;;;;;5096448;28;20017;-73
2023/05/20 11:31:50;;;;;;;13.23;7.82;;;742.50;1408.00;;;;;;5106318;28;20420;-73
2023/05/20 11:34:18;;;;;;;11.60;7.47;;;742.40;1408.00;;;;;;5100586;28;20384;-72
2023/05/20 11:36:44;;;;;;;11.20;7.30;;;717.60;1356.80;;;;;;5104513;28;20021;-73
2023/05/20 11:39:12;;;;;;;11.15;7.53;;;742.50;1382.40;;;;;;5079660;28;20032;-72
2023/05/20 11:41:38;;;;;;;9.77;7.72;;;742.50;1356.80;;;;;;5108663;28;20365;-72
2023/05/20 11:44:08;;;;;;;13.13;7.55;;;742.70;1382.40;;;;;;5098139;28;20027;-72
2023/05/20 11:46:43;;;;;;;14.93;8.10;;;742.90;1305.60;;;;;;5103675;28;20044;-73
2023/05/20 11:49:09;;;;;;;12.57;7.73;;;742.80;1356.80;;;;;;5097709;28;20032;-75
2023/05/20 11:51:36;;;;;;;9.88;6.97;;;742.80;1356.80;;;;;;5092130;28;20277;-72
2023/05/20 11:54:03;;;;;;;13.13;8.13;;;743.00;1331.20;;;;;;5095011;28;20024;-73
2023/05/20 11:56:30;;;;;;;16.98;7.50;;;743.00;1356.80;;;;;;5096534;28;20557;-72
2023/05/20 11:58:58;;;;;;;11.18;7.38;;;743.00;1331.20;;;;;;5100878;28;20086;-72
2023/05/20 12:01:24;;;;;;;10.75;6.78;;;743.00;1331.20;;;;;;5098711;28;20153;-72
2023/05/20 12:03:50;;;;;;;10.32;7.43;;;742.90;1331.20;;;;;;5099349;28;20114;-73